sensor_id;sensor_type;location;lat;lon;timestamp;P1;durP1;ratioP1;P2;durP2;ratioP2
5167;SDS011;2603;48.918;8.980;2023-07-20T00:01:05;3.93;;;1.57;;
5167;SDS011;2603;48.918;8.980;2023-07-20T00:03:32;6.40;;;1.57;;
5167;SDS011;2603;48.918;8.980;2023-07-20T00:05:58;2.80;;;1.40;;
5167;SDS011;2603;48.918;8.980;2023-07-20T00:08:39;3.67;;;1.30;;
5167;SDS011;2603;48.918;8.980;2023-07-20T00:11:12;3.20;;;1.63;;
5167;SDS011;2603;48.918;8.980;2023-07-20T00:13:40;4.70;;;1.63;;
5167;SDS011;2603;48.918;8.980;2023-07-20T00:16:07;3.73;;;1.67;;
5167;SDS011;2603;48.918;8.980;2023-07-20T00:18:34;5.20;;;1.90;;
5167;SDS011;2603;48.918;8.980;2023-07-20T00:21:03;3.63;;;1.70;;
5167;SDS011;2603;48.918;8.980;2023-07-20T00:23:32;4.20;;;2.00;;
5167;SDS011;2603;48.918;8.980;2023-07-20T00:25:59;7.23;;;1.47;;
5167;SDS011;2603;48.918;8.980;2023-07-20T00:28:25;6.93;;;1.53;;
5167;SDS011;2603;48.918;8.980;2023-07-20T00:30:53;4.30;;;2.20;;
5167;SDS011;2603;48.918;8.980;2023-07-20T00:33:22;5.07;;;1.67;;
5167;SDS011;2603;48.918;8.980;2023-07-20T00:35:48;3.90;;;2.00;;
5167;SDS011;2603;48.918;8.980;2023-07-20T00:38:15;3.60;;;1.40;;
5167;SDS011;2603;48.918;8.980;2023-07-20T00:40:43;2.83;;;1.37;;
5167;SDS011;2603;48.918;8.980;2023-07-20T00:43:10;4.10;;;1.50;;
5167;SDS011;2603;48.918;8.980;2023-07-20T00:45:39;2.53;;;1.60;;
5167;SDS011;2603;48.918;8.980;2023-07-20T00:48:06;2.50;;;1.37;;
5167;SDS011;2603;48.918;8.980;2023-07-20T00:50:35;3.40;;;1.40;;
5167;SDS011;2603;48.918;8.980;2023-07-20T00:53:02;3.10;;;1.30;;
5167;SDS011;2603;48.918;8.980;2023-07-20T00:55:31;5.40;;;1.80;;
5167;SDS011;2603;48.918;8.980;2023-07-20T00:58:03;8.60;;;1.60;;
5167;SDS011;2603;48.918;8.980;2023-07-20T01:00:31;5.70;;;1.87;;
5167;SDS011;2603;48.918;8.980;2023-07-20T01:02:57;5.40;;;2.00;;
5167;SDS011;2603;48.918;8.980;2023-07-20T01:05:27;2.97;;;1.50;;
5167;SDS011;2603;48.918;8.980;2023-07-20T01:08:05;4.00;;;1.20;;
5167;SDS011;2603;48.918;8.980;2023-07-20T01:10:38;5.00;;;1.83;;
5167;SDS011;2603;48.918;8.980;2023-07-20T01:13:08;12.23;;;1.70;;
5167;SDS011;2603;48.918;8.980;2023-07-20T01:15:37;6.90;;;1.97;;
5167;SDS011;2603;48.918;8.980;2023-07-20T01:18:04;6.80;;;1.30;;
5167;SDS011;2603;48.918;8.980;2023-07-20T01:20:31;5.10;;;1.93;;
5167;SDS011;2603;48.918;8.980;2023-07-20T01:23:10;7.53;;;1.40;;
5167;SDS011;2603;48.918;8.980;2023-07-20T01:25:57;3.93;;;2.07;;
5167;SDS011;2603;48.918;8.980;2023-07-20T01:28:37;2.90;;;1.57;;
5167;SDS011;2603;48.918;8.980;2023-07-20T01:31:16;3.00;;;2.00;;
5167;SDS011;2603;48.918;8.980;2023-07-20T01:33:44;3.57;;;1.87;;
5167;SDS011;2603;48.918;8.980;2023-07-20T01:36:13;4.50;;;1.40;;
5167;SDS011;2603;48.918;8.980;2023-07-20T01:38:41;4.40;;;1.13;;
5167;SDS011;2603;48.918;8.980;2023-07-20T01:41:08;8.43;;;1.50;;
5167;SDS011;2603;48.918;8.980;2023-07-20T01:43:34;3.53;;;1.70;;
5167;SDS011;2603;48.918;8.980;2023-07-20T01:46:03;5.90;;;1.93;;
5167;SDS011;2603;48.918;8.980;2023-07-20T01:48:33;5.73;;;2.07;;
5167;SDS011;2603;48.918;8.980;2023-07-20T01:51:00;3.00;;;2.10;;
5167;SDS011;2603;48.918;8.980;2023-07-20T01:53:28;3.40;;;1.43;;
5167;SDS011;2603;48.918;8.980;2023-07-20T01:55:56;5.37;;;1.93;;
5167;SDS011;2603;48.918;8.980;2023-07-20T01:58:24;5.40;;;2.10;;
5167;SDS011;2603;48.918;8.980;2023-07-20T02:00:52;9.30;;;1.63;;
5167;SDS011;2603;48.918;8.980;2023-07-20T02:03:18;4.53;;;1.60;;
5167;SDS011;2603;48.918;8.980;2023-07-20T02:05:48;3.30;;;1.43;;
5167;SDS011;2603;48.918;8.980;2023-07-20T02:08:28;3.50;;;1.80;;
5167;SDS011;2603;48.918;8.980;2023-07-20T02:10:56;3.90;;;2.10;;
5167;SDS011;2603;48.918;8.980;2023-07-20T02:13:23;4.20;;;1.60;;
5167;SDS011;2603;48.918;8.980;2023-07-20T02:15:49;5.00;;;1.97;;
5167;SDS011;2603;48.918;8.980;2023-07-20T02:18:16;4.23;;;2.20;;
5167;SDS011;2603;48.918;8.980;2023-07-20T02:20:43;3.50;;;2.10;;
5167;SDS011;2603;48.918;8.980;2023-07-20T02:23:11;5.40;;;1.80;;
5167;SDS011;2603;48.918;8.980;2023-07-20T02:25:38;3.37;;;1.50;;
5167;SDS011;2603;48.918;8.980;2023-07-20T02:28:05;6.17;;;2.33;;
5167;SDS011;2603;48.918;8.980;2023-07-20T02:30:33;8.73;;;1.63;;
5167;SDS011;2603;48.918;8.980;2023-07-20T02:33:00;5.77;;;1.67;;
5167;SDS011;2603;48.918;8.980;2023-07-20T02:35:26;3.30;;;1.73;;
5167;SDS011;2603;48.918;8.980;2023-07-20T02:37:53;5.80;;;1.50;;
5167;SDS011;2603;48.918;8.980;2023-07-20T02:40:21;4.33;;;1.60;;
5167;SDS011;2603;48.918;8.980;2023-07-20T02:42:48;9.13;;;1.93;;
5167;SDS011;2603;48.918;8.980;2023-07-20T02:45:15;6.10;;;2.43;;
5167;SDS011;2603;48.918;8.980;2023-07-20T02:47:42;3.13;;;1.67;;
5167;SDS011;2603;48.918;8.980;2023-07-20T02:50:09;5.20;;;2.27;;
5167;SDS011;2603;48.918;8.980;2023-07-20T02:52:38;5.37;;;2.27;;
5167;SDS011;2603;48.918;8.980;2023-07-20T02:55:05;6.90;;;2.53;;
5167;SDS011;2603;48.918;8.980;2023-07-20T02:57:34;5.03;;;2.10;;
5167;SDS011;2603;48.918;8.980;2023-07-20T03:00:01;3.17;;;2.03;;
5167;SDS011;2603;48.918;8.980;2023-07-20T03:02:29;4.37;;;2.03;;
5167;SDS011;2603;48.918;8.980;2023-07-20T03:04:56;2.60;;;1.87;;
5167;SDS011;2603;48.918;8.980;2023-07-20T03:07:26;4.13;;;1.93;;
5167;SDS011;2603;48.918;8.980;2023-07-20T03:09:53;4.10;;;1.90;;
5167;SDS011;2603;48.918;8.980;2023-07-20T03:12:20;5.93;;;2.20;;
5167;SDS011;2603;48.918;8.980;2023-07-20T03:14:49;7.70;;;2.17;;
5167;SDS011;2603;48.918;8.980;2023-07-20T03:17:16;3.47;;;1.83;;
5167;SDS011;2603;48.918;8.980;2023-07-20T03:19:45;3.93;;;1.83;;
5167;SDS011;2603;48.918;8.980;2023-07-20T03:22:12;6.50;;;2.23;;
5167;SDS011;2603;48.918;8.980;2023-07-20T03:24:38;3.90;;;1.70;;
5167;SDS011;2603;48.918;8.980;2023-07-20T03:27:05;4.10;;;1.90;;
5167;SDS011;2603;48.918;8.980;2023-07-20T03:29:32;4.60;;;1.80;;
5167;SDS011;2603;48.918;8.980;2023-07-20T03:32:00;5.40;;;2.13;;
5167;SDS011;2603;48.918;8.980;2023-07-20T03:34:28;8.00;;;2.30;;
5167;SDS011;2603;48.918;8.980;2023-07-20T03:36:54;3.13;;;1.80;;
5167;SDS011;2603;48.918;8.980;2023-07-20T03:39:21;9.33;;;2.03;;
5167;SDS011;2603;48.918;8.980;2023-07-20T03:41:48;7.30;;;1.53;;
5167;SDS011;2603;48.918;8.980;2023-07-20T03:44:15;3.90;;;2.03;;
5167;SDS011;2603;48.918;8.980;2023-07-20T03:46:42;6.53;;;1.87;;
5167;SDS011;2603;48.918;8.980;2023-07-20T03:49:11;3.50;;;1.40;;
5167;SDS011;2603;48.918;8.980;2023-07-20T03:51:37;7.20;;;2.10;;
5167;SDS011;2603;48.918;8.980;2023-07-20T03:54:04;9.93;;;1.97;;
5167;SDS011;2603;48.918;8.980;2023-07-20T03:56:31;3.87;;;2.20;;
5167;SDS011;2603;48.918;8.980;2023-07-20T03:59:00;5.00;;;1.80;;
5167;SDS011;2603;48.918;8.980;2023-07-20T04:01:27;5.30;;;1.97;;
5167;SDS011;2603;48.918;8.980;2023-07-20T04:03:54;5.33;;;1.90;;
5167;SDS011;2603;48.918;8.980;2023-07-20T04:06:22;3.40;;;2.13;;
5167;SDS011;2603;48.918;8.980;2023-07-20T04:08:49;4.20;;;1.80;;
5167;SDS011;2603;48.918;8.980;2023-07-20T04:11:16;4.10;;;2.07;;
5167;SDS011;2603;48.918;8.980;2023-07-20T04:13:43;8.03;;;2.20;;
5167;SDS011;2603;48.918;8.980;2023-07-20T04:16:10;6.43;;;2.00;;
5167;SDS011;2603;48.918;8.980;2023-07-20T04:18:36;4.90;;;1.80;;
5167;SDS011;2603;48.918;8.980;2023-07-20T04:21:03;3.10;;;1.67;;
5167;SDS011;2603;48.918;8.980;2023-07-20T04:23:32;6.13;;;2.17;;
5167;SDS011;2603;48.918;8.980;2023-07-20T04:25:59;4.50;;;1.70;;
5167;SDS011;2603;48.918;8.980;2023-07-20T04:28:26;3.23;;;1.93;;
5167;SDS011;2603;48.918;8.980;2023-07-20T04:30:53;4.93;;;1.60;;
5167;SDS011;2603;48.918;8.980;2023-07-20T04:33:21;3.57;;;1.80;;
5167;SDS011;2603;48.918;8.980;2023-07-20T04:35:50;4.43;;;1.90;;
5167;SDS011;2603;48.918;8.980;2023-07-20T04:38:20;6.43;;;2.27;;
5167;SDS011;2603;48.918;8.980;2023-07-20T04:40:56;5.23;;;1.97;;
5167;SDS011;2603;48.918;8.980;2023-07-20T04:43:22;5.80;;;2.37;;
5167;SDS011;2603;48.918;8.980;2023-07-20T04:45:49;6.90;;;2.93;;
5167;SDS011;2603;48.918;8.980;2023-07-20T04:48:16;3.80;;;2.00;;
5167;SDS011;2603;48.918;8.980;2023-07-20T04:50:49;5.57;;;2.23;;
5167;SDS011;2603;48.918;8.980;2023-07-20T04:53:16;4.53;;;2.33;;
5167;SDS011;2603;48.918;8.980;2023-07-20T04:55:47;5.70;;;1.80;;
5167;SDS011;2603;48.918;8.980;2023-07-20T04:58:17;3.57;;;1.87;;
5167;SDS011;2603;48.918;8.980;2023-07-20T05:00:47;3.60;;;1.43;;
5167;SDS011;2603;48.918;8.980;2023-07-20T05:03:14;4.30;;;1.77;;
5167;SDS011;2603;48.918;8.980;2023-07-20T05:05:42;6.63;;;1.60;;
5167;SDS011;2603;48.918;8.980;2023-07-20T05:08:10;3.93;;;1.47;;
5167;SDS011;2603;48.918;8.980;2023-07-20T05:10:36;3.60;;;1.77;;
5167;SDS011;2603;48.918;8.980;2023-07-20T05:13:03;5.00;;;2.20;;
5167;SDS011;2603;48.918;8.980;2023-07-20T05:15:33;5.40;;;2.30;;
5167;SDS011;2603;48.918;8.980;2023-07-20T05:18:02;4.27;;;2.07;;
5167;SDS011;2603;48.918;8.980;2023-07-20T05:20:30;3.57;;;1.90;;
5167;SDS011;2603;48.918;8.980;2023-07-20T05:22:59;5.57;;;1.80;;
5167;SDS011;2603;48.918;8.980;2023-07-20T05:25:26;9.33;;;2.33;;
5167;SDS011;2603;48.918;8.980;2023-07-20T05:27:53;5.10;;;1.90;;
5167;SDS011;2603;48.918;8.980;2023-07-20T05:30:20;8.03;;;2.20;;
5167;SDS011;2603;48.918;8.980;2023-07-20T05:32:48;5.83;;;2.50;;
5167;SDS011;2603;48.918;8.980;2023-07-20T05:35:17;3.93;;;2.37;;
5167;SDS011;2603;48.918;8.980;2023-07-20T05:37:43;4.37;;;2.10;;
5167;SDS011;2603;48.918;8.980;2023-07-20T05:40:11;4.37;;;1.90;;
5167;SDS011;2603;48.918;8.980;2023-07-20T05:42:39;6.67;;;2.30;;
5167;SDS011;2603;48.918;8.980;2023-07-20T05:45:06;6.73;;;3.30;;
5167;SDS011;2603;48.918;8.980;2023-07-20T05:47:33;5.50;;;1.80;;
5167;SDS011;2603;48.918;8.980;2023-07-20T05:50:03;6.67;;;2.10;;
5167;SDS011;2603;48.918;8.980;2023-07-20T05:52:30;4.20;;;2.00;;
5167;SDS011;2603;48.918;8.980;2023-07-20T05:54:56;6.60;;;2.43;;
5167;SDS011;2603;48.918;8.980;2023-07-20T05:57:23;4.77;;;1.90;;
5167;SDS011;2603;48.918;8.980;2023-07-20T05:59:50;5.93;;;1.73;;
5167;SDS011;2603;48.918;8.980;2023-07-20T06:02:17;3.87;;;1.67;;
5167;SDS011;2603;48.918;8.980;2023-07-20T06:04:43;3.33;;;1.80;;
5167;SDS011;2603;48.918;8.980;2023-07-20T06:07:11;3.17;;;1.70;;
5167;SDS011;2603;48.918;8.980;2023-07-20T06:09:39;3.70;;;1.50;;
5167;SDS011;2603;48.918;8.980;2023-07-20T06:12:06;3.87;;;1.90;;
5167;SDS011;2603;48.918;8.980;2023-07-20T06:14:34;6.83;;;1.90;;
5167;SDS011;2603;48.918;8.980;2023-07-20T06:17:01;4.17;;;1.53;;
5167;SDS011;2603;48.918;8.980;2023-07-20T06:19:28;2.50;;;1.43;;
5167;SDS011;2603;48.918;8.980;2023-07-20T06:21:54;3.00;;;1.47;;
5167;SDS011;2603;48.918;8.980;2023-07-20T06:24:22;2.87;;;1.40;;
5167;SDS011;2603;48.918;8.980;2023-07-20T06:26:49;3.27;;;1.80;;
5167;SDS011;2603;48.918;8.980;2023-07-20T06:29:16;10.83;;;1.57;;
5167;SDS011;2603;48.918;8.980;2023-07-20T06:31:43;5.10;;;1.40;;
5167;SDS011;2603;48.918;8.980;2023-07-20T06:34:09;2.97;;;1.47;;
5167;SDS011;2603;48.918;8.980;2023-07-20T06:36:36;4.70;;;1.53;;
5167;SDS011;2603;48.918;8.980;2023-07-20T06:39:03;4.80;;;1.33;;
5167;SDS011;2603;48.918;8.980;2023-07-20T06:41:31;3.50;;;1.70;;
5167;SDS011;2603;48.918;8.980;2023-07-20T06:43:58;6.00;;;1.50;;
5167;SDS011;2603;48.918;8.980;2023-07-20T06:46:25;6.23;;;1.70;;
5167;SDS011;2603;48.918;8.980;2023-07-20T06:48:51;9.57;;;2.20;;
5167;SDS011;2603;48.918;8.980;2023-07-20T06:51:18;4.83;;;2.07;;
5167;SDS011;2603;48.918;8.980;2023-07-20T06:53:45;4.10;;;1.60;;
5167;SDS011;2603;48.918;8.980;2023-07-20T06:56:12;3.93;;;1.60;;
5167;SDS011;2603;48.918;8.980;2023-07-20T06:58:40;4.50;;;1.60;;
5167;SDS011;2603;48.918;8.980;2023-07-20T07:01:07;3.93;;;1.60;;
5167;SDS011;2603;48.918;8.980;2023-07-20T07:03:35;4.13;;;1.57;;
5167;SDS011;2603;48.918;8.980;2023-07-20T07:06:01;4.60;;;1.80;;
5167;SDS011;2603;48.918;8.980;2023-07-20T07:08:29;4.20;;;1.50;;
5167;SDS011;2603;48.918;8.980;2023-07-20T07:10:56;7.40;;;2.00;;
5167;SDS011;2603;48.918;8.980;2023-07-20T07:13:22;3.70;;;2.00;;
5167;SDS011;2603;48.918;8.980;2023-07-20T07:15:51;11.63;;;1.93;;
5167;SDS011;2603;48.918;8.980;2023-07-20T07:18:18;5.27;;;1.73;;
5167;SDS011;2603;48.918;8.980;2023-07-20T07:20:50;2.63;;;1.40;;
5167;SDS011;2603;48.918;8.980;2023-07-20T07:23:18;12.77;;;1.53;;
5167;SDS011;2603;48.918;8.980;2023-07-20T07:25:45;4.27;;;1.60;;
5167;SDS011;2603;48.918;8.980;2023-07-20T07:28:12;3.23;;;1.80;;
5167;SDS011;2603;48.918;8.980;2023-07-20T07:30:38;5.23;;;1.40;;
5167;SDS011;2603;48.918;8.980;2023-07-20T07:33:07;4.73;;;1.93;;
5167;SDS011;2603;48.918;8.980;2023-07-20T07:35:35;7.57;;;2.10;;
5167;SDS011;2603;48.918;8.980;2023-07-20T07:38:01;5.20;;;1.57;;
5167;SDS011;2603;48.918;8.980;2023-07-20T07:40:28;26.37;;;2.13;;
5167;SDS011;2603;48.918;8.980;2023-07-20T07:42:55;4.60;;;1.73;;
5167;SDS011;2603;48.918;8.980;2023-07-20T07:45:22;11.07;;;2.03;;
5167;SDS011;2603;48.918;8.980;2023-07-20T07:47:48;5.23;;;1.63;;
5167;SDS011;2603;48.918;8.980;2023-07-20T07:50:18;6.13;;;1.37;;
5167;SDS011;2603;48.918;8.980;2023-07-20T07:52:44;3.37;;;1.50;;
5167;SDS011;2603;48.918;8.980;2023-07-20T07:55:11;2.97;;;2.17;;
5167;SDS011;2603;48.918;8.980;2023-07-20T07:57:38;5.77;;;2.10;;
5167;SDS011;2603;48.918;8.980;2023-07-20T08:00:05;5.50;;;2.03;;
5167;SDS011;2603;48.918;8.980;2023-07-20T08:02:36;3.17;;;1.47;;
5167;SDS011;2603;48.918;8.980;2023-07-20T08:05:03;4.40;;;1.53;;
5167;SDS011;2603;48.918;8.980;2023-07-20T08:07:31;2.73;;;1.40;;
5167;SDS011;2603;48.918;8.980;2023-07-20T08:09:58;4.03;;;1.43;;
5167;SDS011;2603;48.918;8.980;2023-07-20T08:12:26;6.13;;;1.67;;
5167;SDS011;2603;48.918;8.980;2023-07-20T08:14:53;4.40;;;1.90;;
5167;SDS011;2603;48.918;8.980;2023-07-20T08:17:19;2.80;;;1.40;;
5167;SDS011;2603;48.918;8.980;2023-07-20T08:19:52;4.03;;;1.83;;
5167;SDS011;2603;48.918;8.980;2023-07-20T08:22:20;2.47;;;1.30;;
5167;SDS011;2603;48.918;8.980;2023-07-20T08:24:48;4.13;;;2.20;;
5167;SDS011;2603;48.918;8.980;2023-07-20T08:27:14;2.80;;;1.60;;
5167;SDS011;2603;48.918;8.980;2023-07-20T08:29:41;10.37;;;2.07;;
5167;SDS011;2603;48.918;8.980;2023-07-20T08:32:08;4.67;;;2.23;;
5167;SDS011;2603;48.918;8.980;2023-07-20T08:34:35;7.50;;;2.47;;
5167;SDS011;2603;48.918;8.980;2023-07-20T08:37:02;5.30;;;1.90;;
5167;SDS011;2603;48.918;8.980;2023-07-20T08:39:28;3.53;;;1.67;;
5167;SDS011;2603;48.918;8.980;2023-07-20T08:41:57;3.47;;;1.60;;
5167;SDS011;2603;48.918;8.980;2023-07-20T08:44:31;12.00;;;1.80;;
5167;SDS011;2603;48.918;8.980;2023-07-20T08:46:59;5.03;;;1.50;;
5167;SDS011;2603;48.918;8.980;2023-07-20T08:49:28;7.03;;;1.53;;
5167;SDS011;2603;48.918;8.980;2023-07-20T08:51:55;3.00;;;1.60;;
5167;SDS011;2603;48.918;8.980;2023-07-20T08:54:23;3.60;;;1.60;;
5167;SDS011;2603;48.918;8.980;2023-07-20T08:56:51;2.30;;;1.27;;
5167;SDS011;2603;48.918;8.980;2023-07-20T08:59:19;2.80;;;1.60;;
5167;SDS011;2603;48.918;8.980;2023-07-20T09:01:47;1.73;;;1.00;;
5167;SDS011;2603;48.918;8.980;2023-07-20T09:04:16;4.97;;;1.70;;
5167;SDS011;2603;48.918;8.980;2023-07-20T09:06:43;4.43;;;1.60;;
5167;SDS011;2603;48.918;8.980;2023-07-20T09:09:10;4.27;;;1.27;;
5167;SDS011;2603;48.918;8.980;2023-07-20T09:11:37;2.30;;;1.20;;
5167;SDS011;2603;48.918;8.980;2023-07-20T09:14:04;2.63;;;1.00;;
5167;SDS011;2603;48.918;8.980;2023-07-20T09:16:33;5.23;;;1.27;;
5167;SDS011;2603;48.918;8.980;2023-07-20T09:19:14;7.53;;;1.50;;
5167;SDS011;2603;48.918;8.980;2023-07-20T09:21:41;3.70;;;1.20;;
5167;SDS011;2603;48.918;8.980;2023-07-20T09:24:08;2.77;;;0.90;;
5167;SDS011;2603;48.918;8.980;2023-07-20T09:26:37;2.70;;;1.43;;
5167;SDS011;2603;48.918;8.980;2023-07-20T09:29:08;12.23;;;1.60;;
5167;SDS011;2603;48.918;8.980;2023-07-20T09:31:37;1.97;;;0.93;;
5167;SDS011;2603;48.918;8.980;2023-07-20T09:34:04;3.10;;;1.10;;
5167;SDS011;2603;48.918;8.980;2023-07-20T09:36:32;2.83;;;1.10;;
5167;SDS011;2603;48.918;8.980;2023-07-20T09:38:59;3.07;;;1.17;;
5167;SDS011;2603;48.918;8.980;2023-07-20T09:41:26;5.00;;;1.50;;
5167;SDS011;2603;48.918;8.980;2023-07-20T09:43:54;6.73;;;1.27;;
5167;SDS011;2603;48.918;8.980;2023-07-20T09:46:20;5.23;;;0.97;;
5167;SDS011;2603;48.918;8.980;2023-07-20T09:48:52;3.27;;;1.23;;
5167;SDS011;2603;48.918;8.980;2023-07-20T09:51:20;1.47;;;0.90;;
5167;SDS011;2603;48.918;8.980;2023-07-20T09:53:48;2.80;;;1.00;;
5167;SDS011;2603;48.918;8.980;2023-07-20T09:56:15;9.60;;;1.30;;
5167;SDS011;2603;48.918;8.980;2023-07-20T09:58:44;5.03;;;1.17;;
5167;SDS011;2603;48.918;8.980;2023-07-20T10:01:12;1.60;;;1.00;;
5167;SDS011;2603;48.918;8.980;2023-07-20T10:03:41;3.90;;;1.03;;
5167;SDS011;2603;48.918;8.980;2023-07-20T10:06:12;11.77;;;1.47;;
5167;SDS011;2603;48.918;8.980;2023-07-20T10:08:42;4.57;;;1.30;;
5167;SDS011;2603;48.918;8.980;2023-07-20T10:11:12;5.87;;;1.47;;
5167;SDS011;2603;48.918;8.980;2023-07-20T10:13:41;2.40;;;1.23;;
5167;SDS011;2603;48.918;8.980;2023-07-20T10:16:12;1.80;;;0.63;;
5167;SDS011;2603;48.918;8.980;2023-07-20T10:18:45;4.40;;;1.10;;
5167;SDS011;2603;48.918;8.980;2023-07-20T10:21:17;2.23;;;0.90;;
5167;SDS011;2603;48.918;8.980;2023-07-20T10:23:51;5.93;;;1.27;;
5167;SDS011;2603;48.918;8.980;2023-07-20T10:26:17;3.33;;;1.13;;
5167;SDS011;2603;48.918;8.980;2023-07-20T10:29:06;2.00;;;0.93;;
5167;SDS011;2603;48.918;8.980;2023-07-20T10:31:58;2.33;;;1.23;;
5167;SDS011;2603;48.918;8.980;2023-07-20T10:34:27;3.93;;;1.13;;
5167;SDS011;2603;48.918;8.980;2023-07-20T10:37:05;5.00;;;1.07;;
5167;SDS011;2603;48.918;8.980;2023-07-20T10:39:39;2.27;;;1.00;;
5167;SDS011;2603;48.918;8.980;2023-07-20T10:42:10;1.70;;;0.90;;
5167;SDS011;2603;48.918;8.980;2023-07-20T10:44:39;3.57;;;1.20;;
5167;SDS011;2603;48.918;8.980;2023-07-20T10:47:08;3.90;;;1.40;;
5167;SDS011;2603;48.918;8.980;2023-07-20T10:49:39;3.23;;;1.50;;
5167;SDS011;2603;48.918;8.980;2023-07-20T10:52:36;8.83;;;1.00;;
5167;SDS011;2603;48.918;8.980;2023-07-20T10:55:09;3.17;;;1.07;;
5167;SDS011;2603;48.918;8.980;2023-07-20T10:57:37;2.90;;;1.00;;
5167;SDS011;2603;48.918;8.980;2023-07-20T11:00:08;3.37;;;1.10;;
5167;SDS011;2603;48.918;8.980;2023-07-20T11:02:44;23.20;;;2.83;;
5167;SDS011;2603;48.918;8.980;2023-07-20T11:08:03;18.50;;;2.13;;
5167;SDS011;2603;48.918;8.980;2023-07-20T11:10:30;63.03;;;5.33;;
5167;SDS011;2603;48.918;8.980;2023-07-20T11:15:52;4.53;;;1.70;;
5167;SDS011;2603;48.918;8.980;2023-07-20T11:18:28;4.03;;;1.20;;
5167;SDS011;2603;48.918;8.980;2023-07-20T11:21:00;18.00;;;1.80;;
5167;SDS011;2603;48.918;8.980;2023-07-20T11:23:26;5.60;;;1.00;;
5167;SDS011;2603;48.918;8.980;2023-07-20T11:25:55;4.63;;;1.30;;
5167;SDS011;2603;48.918;8.980;2023-07-20T11:28:25;2.33;;;1.17;;
5167;SDS011;2603;48.918;8.980;2023-07-20T11:30:52;24.63;;;1.77;;
5167;SDS011;2603;48.918;8.980;2023-07-20T11:33:22;4.90;;;1.30;;
5167;SDS011;2603;48.918;8.980;2023-07-20T11:35:49;3.40;;;1.07;;
5167;SDS011;2603;48.918;8.980;2023-07-20T11:38:23;2.70;;;0.90;;
5167;SDS011;2603;48.918;8.980;2023-07-20T11:40:50;2.97;;;1.07;;
5167;SDS011;2603;48.918;8.980;2023-07-20T11:43:16;3.93;;;1.30;;
5167;SDS011;2603;48.918;8.980;2023-07-20T11:45:46;7.10;;;1.57;;
5167;SDS011;2603;48.918;8.980;2023-07-20T11:48:16;2.53;;;1.60;;
5167;SDS011;2603;48.918;8.980;2023-07-20T11:50:43;3.27;;;1.40;;
5167;SDS011;2603;48.918;8.980;2023-07-20T11:53:12;7.53;;;1.70;;
5167;SDS011;2603;48.918;8.980;2023-07-20T11:55:44;5.27;;;1.47;;
5167;SDS011;2603;48.918;8.980;2023-07-20T11:58:11;3.50;;;1.10;;
5167;SDS011;2603;48.918;8.980;2023-07-20T12:00:41;6.03;;;1.30;;
5167;SDS011;2603;48.918;8.980;2023-07-20T12:03:13;4.40;;;1.23;;
5167;SDS011;2603;48.918;8.980;2023-07-20T12:05:42;4.43;;;1.37;;
5167;SDS011;2603;48.918;8.980;2023-07-20T12:08:08;2.27;;;1.20;;
5167;SDS011;2603;48.918;8.980;2023-07-20T12:10:39;17.10;;;1.73;;
5167;SDS011;2603;48.918;8.980;2023-07-20T12:13:10;2.50;;;1.00;;
5167;SDS011;2603;48.918;8.980;2023-07-20T12:15:37;4.37;;;1.47;;
5167;SDS011;2603;48.918;8.980;2023-07-20T12:18:04;1.90;;;1.07;;
5167;SDS011;2603;48.918;8.980;2023-07-20T12:20:32;2.73;;;1.00;;
5167;SDS011;2603;48.918;8.980;2023-07-20T12:23:00;2.47;;;1.17;;
5167;SDS011;2603;48.918;8.980;2023-07-20T12:25:36;2.37;;;1.03;;
5167;SDS011;2603;48.918;8.980;2023-07-20T12:28:04;5.30;;;1.00;;
5167;SDS011;2603;48.918;8.980;2023-07-20T12:30:33;4.83;;;1.33;;
5167;SDS011;2603;48.918;8.980;2023-07-20T12:33:01;5.50;;;0.90;;
5167;SDS011;2603;48.918;8.980;2023-07-20T12:35:29;3.10;;;1.37;;
5167;SDS011;2603;48.918;8.980;2023-07-20T12:37:56;5.13;;;1.43;;
5167;SDS011;2603;48.918;8.980;2023-07-20T12:40:23;2.47;;;1.10;;
5167;SDS011;2603;48.918;8.980;2023-07-20T12:42:49;2.67;;;1.37;;
5167;SDS011;2603;48.918;8.980;2023-07-20T12:45:16;2.57;;;1.53;;
5167;SDS011;2603;48.918;8.980;2023-07-20T12:47:44;2.87;;;1.23;;
5167;SDS011;2603;48.918;8.980;2023-07-20T12:50:10;1.80;;;1.03;;
5167;SDS011;2603;48.918;8.980;2023-07-20T12:52:38;4.90;;;1.80;;
5167;SDS011;2603;48.918;8.980;2023-07-20T12:55:05;2.47;;;1.00;;
5167;SDS011;2603;48.918;8.980;2023-07-20T12:57:34;4.90;;;0.90;;
5167;SDS011;2603;48.918;8.980;2023-07-20T13:00:01;1.67;;;1.10;;
5167;SDS011;2603;48.918;8.980;2023-07-20T13:02:29;1.60;;;0.90;;
5167;SDS011;2603;48.918;8.980;2023-07-20T13:04:58;10.20;;;1.80;;
5167;SDS011;2603;48.918;8.980;2023-07-20T13:07:29;10.03;;;1.33;;
5167;SDS011;2603;48.918;8.980;2023-07-20T13:09:56;3.23;;;1.20;;
5167;SDS011;2603;48.918;8.980;2023-07-20T13:12:24;2.30;;;1.00;;
5167;SDS011;2603;48.918;8.980;2023-07-20T13:14:52;3.67;;;1.20;;
5167;SDS011;2603;48.918;8.980;2023-07-20T13:17:18;3.70;;;0.90;;
5167;SDS011;2603;48.918;8.980;2023-07-20T13:19:45;4.70;;;1.10;;
5167;SDS011;2603;48.918;8.980;2023-07-20T13:22:14;3.53;;;1.40;;
5167;SDS011;2603;48.918;8.980;2023-07-20T13:24:41;2.70;;;1.60;;
5167;SDS011;2603;48.918;8.980;2023-07-20T13:27:07;3.53;;;1.20;;
5167;SDS011;2603;48.918;8.980;2023-07-20T13:29:34;1.87;;;1.10;;
5167;SDS011;2603;48.918;8.980;2023-07-20T13:32:01;3.40;;;1.00;;
5167;SDS011;2603;48.918;8.980;2023-07-20T13:34:29;4.13;;;1.00;;
5167;SDS011;2603;48.918;8.980;2023-07-20T13:36:56;1.73;;;1.00;;
5167;SDS011;2603;48.918;8.980;2023-07-20T13:39:25;4.73;;;1.23;;
5167;SDS011;2603;48.918;8.980;2023-07-20T13:41:52;2.00;;;1.03;;
5167;SDS011;2603;48.918;8.980;2023-07-20T13:44:28;1.87;;;1.00;;
5167;SDS011;2603;48.918;8.980;2023-07-20T13:46:55;1.60;;;0.90;;
5167;SDS011;2603;48.918;8.980;2023-07-20T13:49:23;2.27;;;0.90;;
5167;SDS011;2603;48.918;8.980;2023-07-20T13:51:52;2.80;;;1.07;;
5167;SDS011;2603;48.918;8.980;2023-07-20T13:54:39;4.10;;;1.17;;
5167;SDS011;2603;48.918;8.980;2023-07-20T13:57:06;2.30;;;1.20;;
5167;SDS011;2603;48.918;8.980;2023-07-20T13:59:33;1.70;;;0.90;;
5167;SDS011;2603;48.918;8.980;2023-07-20T14:01:59;2.60;;;1.00;;
5167;SDS011;2603;48.918;8.980;2023-07-20T14:04:27;2.50;;;0.90;;
5167;SDS011;2603;48.918;8.980;2023-07-20T14:06:54;2.60;;;1.20;;
5167;SDS011;2603;48.918;8.980;2023-07-20T14:09:20;2.87;;;1.00;;
5167;SDS011;2603;48.918;8.980;2023-07-20T14:11:49;2.47;;;1.17;;
5167;SDS011;2603;48.918;8.980;2023-07-20T14:14:17;2.43;;;0.87;;
5167;SDS011;2603;48.918;8.980;2023-07-20T14:16:44;2.37;;;0.90;;
5167;SDS011;2603;48.918;8.980;2023-07-20T14:19:10;2.40;;;0.87;;
5167;SDS011;2603;48.918;8.980;2023-07-20T14:21:37;1.53;;;0.90;;
5167;SDS011;2603;48.918;8.980;2023-07-20T14:24:04;2.30;;;0.90;;
5167;SDS011;2603;48.918;8.980;2023-07-20T14:26:31;1.93;;;1.13;;
5167;SDS011;2603;48.918;8.980;2023-07-20T14:29:02;7.73;;;1.10;;
5167;SDS011;2603;48.918;8.980;2023-07-20T14:31:30;2.70;;;1.17;;
5167;SDS011;2603;48.918;8.980;2023-07-20T14:33:56;2.67;;;1.00;;
5167;SDS011;2603;48.918;8.980;2023-07-20T14:36:23;4.77;;;1.20;;
5167;SDS011;2603;48.918;8.980;2023-07-20T14:38:49;3.17;;;1.40;;
5167;SDS011;2603;48.918;8.980;2023-07-20T14:41:16;7.20;;;1.40;;
5167;SDS011;2603;48.918;8.980;2023-07-20T14:43:43;1.50;;;0.73;;
5167;SDS011;2603;48.918;8.980;2023-07-20T14:46:11;1.60;;;0.80;;
5167;SDS011;2603;48.918;8.980;2023-07-20T14:48:38;2.70;;;0.87;;
5167;SDS011;2603;48.918;8.980;2023-07-20T14:54:01;1.57;;;0.97;;
5167;SDS011;2603;48.918;8.980;2023-07-20T14:56:37;7.40;;;1.37;;
5167;SDS011;2603;48.918;8.980;2023-07-20T14:59:04;3.20;;;1.00;;
5167;SDS011;2603;48.918;8.980;2023-07-20T15:01:33;2.10;;;0.90;;
5167;SDS011;2603;48.918;8.980;2023-07-20T15:04:00;1.93;;;0.83;;
5167;SDS011;2603;48.918;8.980;2023-07-20T15:06:33;1.60;;;0.80;;
5167;SDS011;2603;48.918;8.980;2023-07-20T15:09:06;1.73;;;0.80;;
5167;SDS011;2603;48.918;8.980;2023-07-20T15:11:33;1.50;;;0.87;;
5167;SDS011;2603;48.918;8.980;2023-07-20T15:14:00;2.07;;;1.10;;
5167;SDS011;2603;48.918;8.980;2023-07-20T15:16:27;7.20;;;0.80;;
5167;SDS011;2603;48.918;8.980;2023-07-20T15:18:56;2.13;;;0.87;;
5167;SDS011;2603;48.918;8.980;2023-07-20T15:21:23;1.93;;;0.80;;
5167;SDS011;2603;48.918;8.980;2023-07-20T15:23:58;2.03;;;0.93;;
5167;SDS011;2603;48.918;8.980;2023-07-20T15:26:25;1.50;;;0.90;;
5167;SDS011;2603;48.918;8.980;2023-07-20T15:29:05;2.43;;;1.17;;
5167;SDS011;2603;48.918;8.980;2023-07-20T15:31:46;2.07;;;1.20;;